Time;durP1;ratioP1;P1;durP2;ratioP2;P2;SDS_P1;SDS_P2;PMS_P1;PMS_P2;Temp;Humidity;BMP_temperature;BMP_pressure;BME280_temperature;BME280_humidity;BME280_pressure;Samples;Min_cycle;Max_cycle;Signal;HPM_P1;HPM_P2
2022/01/08 00:00:50;;;;;;;10.02;6.13;;;2.10;90.30;;;;;;5105865;28;20027;-58
2022/01/08 00:03:25;;;;;;;11.77;7.15;;;2.00;90.20;;;;;;5123586;27;20169;-58
2022/01/08 00:06:02;;;;;;;10.73;7.00;;;2.00;90.10;;;;;;5094956;28;20027;-56
2022/01/08 00:08:35;;;;;;;10.90;7.03;;;1.90;90.10;;;;;;5096999;27;20082;-56
2022/01/08 00:11:18;;;;;;;8.52;6.20;;;1.90;90.10;;;;;;5118068;28;20034;-57
2022/01/08 00:13:55;;;;;;;9.20;6.43;;;1.90;90.10;;;;;;5112770;28;20372;-54
2022/01/08 00:16:21;;;;;;;11.90;6.80;;;1.80;90.00;;;;;;5107909;28;20031;-53
2022/01/08 00:18:48;;;;;;;14.63;8.50;;;1.80;90.20;;;;;;5127753;28;20164;-49
2022/01/08 00:21:20;;;;;;;14.40;6.95;;;1.80;90.20;;;;;;5112664;27;20035;-50
2022/01/08 00:23:46;;;;;;;13.27;7.53;;;1.80;90.40;;;;;;5114769;28;20126;-54
2022/01/08 00:26:13;;;;;;;11.02;8.18;;;1.80;90.30;;;;;;5120538;27;20032;-51
2022/01/08 00:28:43;;;;;;;12.98;9.05;;;1.80;90.30;;;;;;5118909;27;20070;-51
2022/01/08 00:31:10;;;;;;;14.90;9.13;;;1.80;90.50;;;;;;5135555;27;20037;-55
2022/01/08 00:33:38;;;;;;;14.80;8.65;;;1.80;90.50;;;;;;5117552;28;20027;-55
2022/01/08 00:36:06;;;;;;;14.85;8.88;;;1.90;90.50;;;;;;5099602;28;20034;-52
2022/01/08 00:38:33;;;;;;;15.32;9.43;;;1.90;90.60;;;;;;5110224;27;20038;-54
2022/01/08 00:41:00;;;;;;;15.02;9.05;;;1.80;90.40;;;;;;5108256;27;20031;-55
2022/01/08 00:43:27;;;;;;;13.80;8.93;;;1.80;90.60;;;;;;5133856;27;20034;-56
2022/01/08 00:45:57;;;;;;;13.27;7.97;;;1.80;90.60;;;;;;5131750;27;20105;-57
2022/01/08 00:48:27;;;;;;;13.20;8.23;;;1.90;90.70;;;;;;5137488;27;20055;-57
2022/01/08 00:50:53;;;;;;;13.60;10.05;;;1.90;90.70;;;;;;5124208;27;20036;-55
2022/01/08 00:53:20;;;;;;;14.93;9.65;;;1.80;90.70;;;;;;5117028;28;20438;-56
2022/01/08 00:55:47;;;;;;;9.18;7.20;;;1.80;90.70;;;;;;5129094;27;20454;-49
2022/01/08 00:58:13;;;;;;;13.70;8.43;;;1.80;90.60;;;;;;5136382;27;20030;-50
2022/01/08 01:00:44;;;;;;;14.13;8.32;;;1.80;90.60;;;;;;5125980;27;20024;-48
2022/01/08 01:03:11;;;;;;;9.98;7.32;;;1.80;90.50;;;;;;5116916;28;20085;-50
2022/01/08 01:05:37;;;;;;;15.38;8.52;;;1.80;90.50;;;;;;5124393;27;20084;-47
2022/01/08 01:08:05;;;;;;;12.25;6.93;;;1.70;90.50;;;;;;5131519;27;20031;-49
2022/01/08 01:10:31;;;;;;;14.52;7.40;;;1.70;90.40;;;;;;5131251;27;20074;-50
2022/01/08 01:12:58;;;;;;;14.57;7.50;;;1.70;90.40;;;;;;5117400;27;20051;-50
2022/01/08 01:15:24;;;;;;;11.55;8.27;;;1.60;90.50;;;;;;5118916;27;20084;-52
2022/01/08 01:17:54;;;;;;;10.80;6.82;;;1.70;90.60;;;;;;5116607;27;20043;-48
2022/01/08 01:20:21;;;;;;;13.07;7.13;;;1.70;90.60;;;;;;5124952;27;20397;-50
2022/01/08 01:25:28;;;;;;;12.30;7.57;;;1.70;90.70;;;;;;5118657;27;20032;-47
2022/01/08 01:28:03;;;;;;;11.43;7.97;;;1.80;90.80;;;;;;5116684;28;20031;-52
2022/01/08 01:30:58;;;;;;;15.40;8.40;;;1.80;90.70;;;;;;5125653;27;20019;-51
2022/01/08 01:47:10;;;;;;;12.55;7.50;;;1.90;90.90;;;;;;5129598;27;20080;-52
2022/01/08 01:49:43;;;;;;;9.38;6.88;;;1.90;90.90;;;;;;5097625;28;20050;-55
2022/01/08 01:52:15;;;;;;;11.70;6.55;;;1.90;91.00;;;;;;5100700;27;20110;-55
2022/01/08 01:54:43;;;;;;;11.65;6.93;;;1.90;90.90;;;;;;5131754;27;20031;-56
2022/01/08 01:57:10;;;;;;;9.65;6.68;;;2.00;90.70;;;;;;5106470;27;20329;-61
2022/01/08 01:59:37;;;;;;;8.95;5.80;;;1.90;90.70;;;;;;5132429;27;20032;-64
2022/01/08 02:02:05;;;;;;;11.48;5.78;;;2.00;90.80;;;;;;5097758;28;20035;-64
2022/01/08 02:04:36;;;;;;;12.40;6.50;;;1.90;90.60;;;;;;5099069;27;20027;-63
2022/01/08 02:07:06;;;;;;;9.80;6.35;;;1.90;90.70;;;;;;5117285;27;20437;-62
2022/01/08 02:09:37;;;;;;;10.13;6.07;;;1.90;90.60;;;;;;5127377;27;20458;-62
2022/01/08 02:12:07;;;;;;;9.98;6.25;;;1.90;90.50;;;;;;5136017;27;20494;-63
2022/01/08 02:14:36;;;;;;;11.35;5.97;;;1.90;90.60;;;;;;5127054;27;20030;-64
2022/01/08 02:17:07;;;;;;;14.00;7.28;;;1.80;90.60;;;;;;5133884;27;20440;-63
2022/01/08 02:19:35;;;;;;;8.63;6.13;;;1.90;90.70;;;;;;5135107;27;20160;-63
2022/01/08 02:22:04;;;;;;;8.77;6.72;;;1.90;90.70;;;;;;5135262;27;20076;-63
2022/01/08 02:24:31;;;;;;;11.02;6.90;;;1.90;90.70;;;;;;5132349;27;20356;-63
2022/01/08 02:26:58;;;;;;;13.63;7.20;;;1.90;90.80;;;;;;5135808;27;20475;-62
2022/01/08 02:29:25;;;;;;;11.02;7.10;;;1.90;90.80;;;;;;5115187;27;20473;-61
2022/01/08 02:31:54;;;;;;;12.65;7.07;;;1.90;90.70;;;;;;5115281;28;20028;-61
2022/01/08 02:34:22;;;;;;;13.00;7.35;;;1.90;90.70;;;;;;5127787;27;20024;-61
2022/01/08 02:36:49;;;;;;;12.50;7.07;;;1.90;90.80;;;;;;5097482;28;20051;-60
2022/01/08 02:39:15;;;;;;;12.85;7.38;;;1.90;90.70;;;;;;5126493;27;20035;-59
2022/01/08 02:41:42;;;;;;;11.43;7.40;;;1.80;90.70;;;;;;5134827;27;20027;-63
2022/01/08 02:44:09;;;;;;;11.52;7.95;;;1.90;90.60;;;;;;5125575;27;20039;-61
2022/01/08 02:46:39;;;;;;;14.80;8.05;;;1.90;90.70;;;;;;5121878;27;20070;-62
2022/01/08 02:49:07;;;;;;;12.45;7.38;;;1.80;90.70;;;;;;5128126;27;20037;-63
2022/01/08 02:51:35;;;;;;;11.60;8.48;;;1.80;90.70;;;;;;5134164;27;20345;-62
2022/01/08 02:54:06;;;;;;;13.68;8.30;;;1.80;90.60;;;;;;5128497;27;20070;-60
2022/01/08 02:56:42;;;;;;;11.10;8.10;;;1.70;90.60;;;;;;5115006;27;20019;-58
2022/01/08 02:59:12;;;;;;;17.20;10.07;;;1.70;90.70;;;;;;5114740;28;20387;-55
2022/01/08 03:01:41;;;;;;;15.75;8.48;;;1.70;90.70;;;;;;5106760;27;20114;-53
2022/01/08 03:04:09;;;;;;;11.23;8.50;;;1.70;90.70;;;;;;5134814;27;20118;-54
2022/01/08 03:06:37;;;;;;;15.80;8.43;;;1.60;90.70;;;;;;5112282;27;20045;-52
2022/01/08 03:09:04;;;;;;;17.05;8.23;;;1.60;90.80;;;;;;5134097;27;20043;-47
2022/01/08 03:11:31;;;;;;;11.90;7.65;;;1.60;90.70;;;;;;5122108;27;20035;-49
2022/01/08 03:13:58;;;;;;;12.20;7.95;;;1.60;90.70;;;;;;5106431;27;20078;-44
2022/01/08 03:16:25;;;;;;;15.50;8.35;;;1.60;90.70;;;;;;5130578;27;20037;-44
2022/01/08 03:18:52;;;;;;;10.45;7.55;;;1.60;90.70;;;;;;5112557;27;20039;-47
2022/01/08 03:21:22;;;;;;;13.27;7.57;;;1.60;90.80;;;;;;5132752;27;20038;-45
2022/01/08 03:23:57;;;;;;;;;;;1.60;90.80;;;;;;5133753;27;20470;-46
2022/01/08 03:26:24;;;;;;;12.45;7.40;;;1.70;90.90;;;;;;5132383;27;19911;-46
2022/01/08 03:28:52;;;;;;;11.40;7.45;;;1.60;90.80;;;;;;5133423;27;20023;-48
2022/01/08 03:31:21;;;;;;;10.55;7.68;;;1.70;90.90;;;;;;5114583;27;20037;-49
2022/01/08 03:33:49;;;;;;;10.30;7.00;;;1.70;90.90;;;;;;5113599;27;20484;-46
2022/01/08 03:36:19;;;;;;;8.20;6.07;;;1.70;90.80;;;;;;5095759;28;20633;-48
2022/01/08 03:38:46;;;;;;;10.70;7.22;;;1.70;90.90;;;;;;5111582;27;20035;-48
2022/01/08 03:41:17;;;;;;;11.05;5.90;;;1.70;90.90;;;;;;5116117;27;20071;-48
2022/01/08 03:43:44;;;;;;;9.82;5.93;;;1.70;90.90;;;;;;5128105;27;20051;-50
2022/01/08 03:46:11;;;;;;;11.07;6.47;;;1.70;90.90;;;;;;5126805;27;20116;-53
2022/01/08 03:48:46;;;;;;;8.50;5.47;;;1.70;91.00;;;;;;5109636;28;20042;-50
2022/01/08 03:51:14;;;;;;;13.38;6.70;;;1.70;91.00;;;;;;5115197;27;20055;-56
2022/01/08 03:53:41;;;;;;;13.80;6.40;;;1.70;90.90;;;;;;5133562;27;20508;-57
2022/01/08 03:56:09;;;;;;;8.90;6.43;;;1.80;91.00;;;;;;5129874;27;20084;-57
2022/01/08 03:58:35;;;;;;;9.68;5.82;;;1.70;90.90;;;;;;5115343;27;20069;-53
2022/01/08 04:01:02;;;;;;;12.68;6.10;;;1.70;90.90;;;;;;5132369;27;20032;-49
2022/01/08 04:03:29;;;;;;;7.78;5.85;;;1.70;90.80;;;;;;5132244;27;20043;-49
2022/01/08 04:05:56;;;;;;;8.32;5.88;;;1.70;90.80;;;;;;5115127;28;20023;-48
2022/01/08 04:08:23;;;;;;;11.43;5.60;;;1.60;90.80;;;;;;5133009;27;20023;-49
2022/01/08 04:10:50;;;;;;;13.05;6.18;;;1.70;90.80;;;;;;5133015;28;20102;-45
2022/01/08 04:13:22;;;;;;;11.75;7.13;;;1.60;90.70;;;;;;5132149;28;20032;-44
2022/01/08 04:15:53;;;;;;;12.23;6.55;;;1.60;90.70;;;;;;5133589;28;20038;-46
2022/01/08 04:18:22;;;;;;;7.60;6.50;;;1.60;90.70;;;;;;5131772;28;20027;-49
2022/01/08 04:23:35;;;;;;;8.50;5.40;;;1.60;90.70;;;;;;5130830;28;20042;-46
2022/01/08 04:26:02;;;;;;;14.35;5.45;;;1.60;90.70;;;;;;5132838;28;20137;-47
2022/01/08 04:28:30;;;;;;;7.03;5.28;;;1.60;90.70;;;;;;5132673;28;20416;-47
2022/01/08 04:30:57;;;;;;;9.45;6.05;;;1.60;90.60;;;;;;5101818;28;20059;-44
2022/01/08 04:33:27;;;;;;;8.60;5.63;;;1.50;90.60;;;;;;5095267;28;20091;-44
2022/01/08 04:35:55;;;;;;;9.95;6.57;;;1.50;90.60;;;;;;5124937;28;20035;-46
2022/01/08 04:38:22;;;;;;;11.43;6.18;;;1.50;90.60;;;;;;5133523;28;20075;-45
2022/01/08 04:40:52;;;;;;;11.35;6.93;;;1.50;90.60;;;;;;5133655;28;20386;-46
2022/01/08 04:43:20;;;;;;;;;;;1.40;90.60;;;;;;5133990;28;20035;-44
2022/01/08 04:45:49;;;;;;;11.60;6.97;;;1.40;90.60;;;;;;5127315;28;19930;-47
2022/01/08 04:48:16;;;;;;;7.53;5.53;;;1.40;90.60;;;;;;5131461;28;20506;-44
2022/01/08 04:50:44;;;;;;;10.68;6.47;;;1.50;90.70;;;;;;5121221;28;20281;-46
2022/01/08 04:53:13;;;;;;;11.30;5.55;;;1.40;90.50;;;;;;5110021;28;20034;-44
2022/01/08 04:55:41;;;;;;;10.05;6.20;;;1.40;90.40;;;;;;5112257;28;20130;-43
2022/01/08 04:58:08;;;;;;;9.50;5.82;;;1.40;90.50;;;;;;5119412;28;20413;-45
2022/01/08 05:00:37;;;;;;;12.30;5.78;;;1.30;90.60;;;;;;5122675;28;20067;-44
2022/01/08 05:03:03;;;;;;;11.77;5.45;;;1.30;90.50;;;;;;5118581;28;20079;-44
2022/01/08 05:05:30;;;;;;;9.18;5.65;;;1.30;90.60;;;;;;5122269;28;20032;-44
2022/01/08 05:07:57;;;;;;;8.70;6.20;;;1.30;90.70;;;;;;5132153;27;20108;-43
2022/01/08 05:10:23;;;;;;;14.32;5.50;;;1.30;90.70;;;;;;5131383;27;20039;-44
2022/01/08 05:12:50;;;;;;;14.48;6.13;;;1.30;90.90;;;;;;5116701;28;20028;-43
2022/01/08 05:15:17;;;;;;;9.55;5.60;;;1.40;90.90;;;;;;5130769;27;20493;-44
2022/01/08 05:17:53;;;;;;;8.27;4.47;;;1.40;91.00;;;;;;5132090;27;20440;-45
2022/01/08 05:20:20;;;;;;;9.52;5.47;;;1.40;91.00;;;;;;5130469;27;20083;-46
2022/01/08 05:25:18;;;;;;;9.55;5.28;;;1.50;91.00;;;;;;5130743;27;20027;-45
2022/01/08 05:27:46;;;;;;;13.93;6.10;;;1.40;90.90;;;;;;5136869;27;20080;-46
2022/01/08 05:30:14;;;;;;;7.07;5.05;;;1.40;90.70;;;;;;5104905;28;20115;-43
2022/01/08 05:32:41;;;;;;;9.00;5.18;;;1.40;90.80;;;;;;5116189;28;20478;-45
2022/01/08 05:35:08;;;;;;;7.40;4.95;;;1.30;90.60;;;;;;5102463;28;20367;-44
2022/01/08 05:37:35;;;;;;;11.55;5.18;;;1.30;90.70;;;;;;5116454;28;20071;-43
2022/01/08 05:40:02;;;;;;;8.30;4.35;;;1.30;90.60;;;;;;5120217;27;20106;-43
2022/01/08 05:42:31;;;;;;;8.50;4.10;;;1.30;90.70;;;;;;5116093;28;20432;-44
2022/01/08 05:45:00;;;;;;;10.70;6.18;;;1.20;90.70;;;;;;5120821;27;20586;-44
2022/01/08 05:47:30;;;;;;;8.70;4.20;;;1.20;90.80;;;;;;5123313;27;20729;-44
2022/01/08 05:49:57;;;;;;;9.23;4.80;;;1.20;90.70;;;;;;5130505;27;20024;-44
2022/01/08 05:52:26;;;;;;;5.65;4.00;;;1.20;90.70;;;;;;5098985;28;20140;-44
2022/01/08 05:54:52;;;;;;;9.15;4.00;;;1.20;90.70;;;;;;5099202;27;20091;-43
2022/01/08 05:57:19;;;;;;;7.55;3.50;;;1.20;90.70;;;;;;5115554;28;20024;-43
2022/01/08 05:59:47;;;;;;;7.93;3.97;;;1.20;90.70;;;;;;5101443;27;20035;-43
2022/01/08 06:02:16;;;;;;;13.35;4.38;;;1.20;90.90;;;;;;5136262;27;20396;-44
2022/01/08 06:04:45;;;;;;;7.63;4.43;;;1.30;91.00;;;;;;5132617;27;20020;-45
2022/01/08 06:07:12;;;;;;;10.95;4.85;;;1.30;91.00;;;;;;5118237;27;20027;-44
2022/01/08 06:09:41;;;;;;;8.20;4.68;;;1.30;91.00;;;;;;5127955;27;20035;-42
2022/01/08 06:12:08;;;;;;;8.15;4.25;;;1.30;91.10;;;;;;5112705;28;20023;-46
2022/01/08 06:14:36;;;;;;;12.15;5.15;;;1.30;91.10;;;;;;5119788;27;20567;-43
2022/01/08 06:17:03;;;;;;;7.47;4.30;;;1.40;91.10;;;;;;5129165;27;20039;-43
2022/01/08 06:19:33;;;;;;;9.00;4.47;;;1.40;91.20;;;;;;5116475;27;20437;-43
2022/01/08 06:22:01;;;;;;;10.95;5.03;;;1.50;91.30;;;;;;5135701;27;20439;-43
2022/01/08 06:24:28;;;;;;;7.03;4.18;;;1.50;91.30;;;;;;5115272;27;20499;-44
2022/01/08 06:26:55;;;;;;;10.90;4.65;;;1.50;91.30;;;;;;5115092;28;20024;-43
2022/01/08 06:29:25;;;;;;;8.65;4.88;;;1.50;91.30;;;;;;5115217;27;20023;-47
2022/01/08 06:31:54;;;;;;;9.35;4.20;;;1.60;91.30;;;;;;5117461;27;20435;-43
2022/01/08 06:34:21;;;;;;;;;;;1.60;91.30;;;;;;5135669;27;20110;-44
2022/01/08 06:36:48;;;;;;;9.30;4.68;;;1.60;91.20;;;;;;5121021;27;19907;-45
2022/01/08 06:39:18;;;;;;;8.57;4.75;;;1.60;91.10;;;;;;5135426;27;20031;-46
2022/01/08 06:41:44;;;;;;;11.20;4.75;;;1.60;91.20;;;;;;5114752;28;20020;-45
2022/01/08 06:44:11;;;;;;;11.55;6.00;;;1.60;91.00;;;;;;5114802;28;20050;-43
2022/01/08 06:46:40;;;;;;;11.65;4.93;;;1.60;91.00;;;;;;5107395;27;20043;-46
2022/01/08 06:49:08;;;;;;;11.63;5.43;;;1.50;90.90;;;;;;5131242;27;20038;-44
2022/01/08 06:51:35;;;;;;;9.65;6.53;;;1.50;90.80;;;;;;5135149;27;20042;-44
2022/01/08 06:54:02;;;;;;;9.38;5.43;;;1.50;90.90;;;;;;5102668;28;20043;-45
2022/01/08 06:56:29;;;;;;;9.80;5.50;;;1.40;90.80;;;;;;5132017;27;20071;-43
2022/01/08 06:58:56;;;;;;;10.00;6.07;;;1.40;90.70;;;;;;5115967;27;20034;-44
2022/01/08 07:01:26;;;;;;;13.75;6.38;;;1.40;90.60;;;;;;5131866;27;20037;-44
2022/01/08 07:03:54;;;;;;;9.82;6.47;;;1.30;90.60;;;;;;5135415;27;20031;-44
2022/01/08 07:06:22;;;;;;;13.20;8.00;;;1.40;90.70;;;;;;5100897;28;20489;-44
2022/01/08 07:08:49;;;;;;;12.30;6.60;;;1.30;90.70;;;;;;5120037;27;20333;-44
2022/01/08 07:11:19;;;;;;;10.50;6.35;;;1.30;90.80;;;;;;5134452;27;20042;-42
2022/01/08 07:13:45;;;;;;;9.05;6.40;;;1.30;90.90;;;;;;5134547;27;20370;-42
2022/01/08 07:16:11;;;;;;;12.52;6.65;;;1.40;91.00;;;;;;5123470;27;20067;-42
2022/01/08 07:18:38;;;;;;;16.10;7.53;;;1.40;91.00;;;;;;5111538;27;20070;-43
2022/01/08 07:21:04;;;;;;;12.63;6.95;;;1.40;90.90;;;;;;5134750;27;20333;-44
2022/01/08 07:23:29;;;;;;;10.27;6.15;;;1.40;90.90;;;;;;5129327;27;20171;-43
2022/01/08 07:25:56;;;;;;;12.13;6.50;;;1.40;90.90;;;;;;5108707;27;20318;-42
2022/01/08 07:28:23;;;;;;;11.40;6.20;;;1.40;90.80;;;;;;5134780;27;20042;-44
2022/01/08 07:30:50;;;;;;;10.77;6.45;;;1.30;90.70;;;;;;5115810;27;20035;-44
2022/01/08 07:33:19;;;;;;;10.88;5.72;;;1.30;90.50;;;;;;5134609;27;20499;-43
2022/01/08 07:35:44;;;;;;;12.23;6.05;;;1.20;90.50;;;;;;5129668;27;20023;-45
2022/01/08 07:38:13;;;;;;;13.15;5.18;;;1.20;90.50;;;;;;5134641;27;20039;-43
2022/01/08 07:40:40;;;;;;;9.10;5.28;;;1.20;90.40;;;;;;5121984;27;20036;-42
2022/01/08 07:43:06;;;;;;;9.55;5.20;;;1.10;90.50;;;;;;5114083;28;20036;-45
2022/01/08 07:45:33;;;;;;;12.80;6.28;;;1.10;90.40;;;;;;5127759;27;20047;-45
2022/01/08 07:48:00;;;;;;;9.73;5.72;;;1.00;90.50;;;;;;5101825;28;20043;-46
2022/01/08 07:50:29;;;;;;;9.55;5.28;;;1.10;90.50;;;;;;5122883;27;20039;-44
2022/01/08 07:52:56;;;;;;;14.93;6.78;;;1.10;90.70;;;;;;5132752;27;20031;-43
2022/01/08 07:55:22;;;;;;;10.18;5.60;;;1.10;90.60;;;;;;5128475;27;20451;-44
2022/01/08 07:57:49;;;;;;;8.95;5.35;;;1.10;90.70;;;;;;5115261;28;20088;-43
2022/01/08 08:00:18;;;;;;;9.32;6.00;;;1.10;90.70;;;;;;5132124;27;20031;-43
2022/01/08 08:02:44;;;;;;;;;;;1.10;90.70;;;;;;5115398;27;20031;-42
2022/01/08 08:05:11;;;;;;;8.65;5.95;;;1.20;90.80;;;;;;5113191;28;19911;-44
2022/01/08 08:07:39;;;;;;;13.25;5.15;;;1.10;90.60;;;;;;5111275;27;20034;-45
2022/01/08 08:10:27;;;;;;;7.88;4.93;;;1.20;90.70;;;;;;5128446;27;20035;-42
2022/01/08 08:12:55;;;;;;;12.00;5.43;;;1.10;90.70;;;;;;5130519;28;20035;-42
2022/01/08 08:15:23;;;;;;;12.05;5.75;;;1.10;90.70;;;;;;5111364;28;20023;-43
2022/01/08 08:17:52;;;;;;;14.50;6.10;;;1.20;90.80;;;;;;5129606;28;20031;-46
2022/01/08 08:20:18;;;;;;;;;;;1.20;90.90;;;;;;5133057;28;20015;-43
2022/01/08 08:22:45;;;;;;;7.95;4.55;;;1.30;90.90;;;;;;5115040;28;20244;-44
2022/01/08 08:25:12;;;;;;;14.00;6.50;;;1.30;90.70;;;;;;5127874;28;20027;-42
2022/01/08 08:27:39;;;;;;;6.60;3.88;;;1.30;90.80;;;;;;5130068;28;20126;-44
2022/01/08 08:30:08;;;;;;;7.97;4.50;;;1.40;90.90;;;;;;5129545;28;20055;-44
2022/01/08 08:32:35;;;;;;;11.43;5.40;;;1.40;90.90;;;;;;5114844;28;20038;-44
2022/01/08 08:35:02;;;;;;;9.52;4.43;;;1.40;90.70;;;;;;5132633;28;20035;-43
2022/01/08 08:37:34;;;;;;;11.60;4.65;;;1.50;90.70;;;;;;5127064;28;20019;-42
2022/01/08 08:40:05;;;;;;;10.50;4.93;;;1.50;90.70;;;;;;5129426;28;20031;-42
2022/01/08 08:42:32;;;;;;;13.15;4.63;;;1.50;90.60;;;;;;5135826;27;20036;-42
2022/01/08 08:44:59;;;;;;;12.98;5.30;;;1.60;90.60;;;;;;5136076;27;20050;-42
2022/01/08 08:47:25;;;;;;;8.10;4.05;;;1.70;90.60;;;;;;5128750;27;20054;-43
2022/01/08 08:49:54;;;;;;;12.05;4.70;;;1.70;90.60;;;;;;5136849;27;20110;-45
2022/01/08 08:52:23;;;;;;;12.23;4.50;;;1.80;90.60;;;;;;5137164;27;20038;-45
2022/01/08 08:54:51;;;;;;;11.90;5.00;;;1.90;90.50;;;;;;5136836;27;20031;-44
2022/01/08 08:57:18;;;;;;;15.75;5.22;;;1.90;90.40;;;;;;5115104;27;20387;-51
2022/01/08 08:59:45;;;;;;;9.98;4.50;;;2.00;90.30;;;;;;5108011;28;20421;-47
2022/01/08 09:02:15;;;;;;;7.30;4.13;;;2.10;90.20;;;;;;5135995;27;20070;-48
2022/01/08 09:04:42;;;;;;;11.88;3.72;;;2.10;90.00;;;;;;5133627;27;20020;-51
2022/01/08 09:07:09;;;;;;;8.52;4.32;;;2.20;90.00;;;;;;5108644;27;20031;-54
2022/01/08 09:09:37;;;;;;;8.25;3.95;;;2.20;89.80;;;;;;5126821;27;20062;-49
2022/01/08 09:12:04;;;;;;;11.40;4.80;;;2.20;89.70;;;;;;5131505;27;20027;-57
2022/01/08 09:14:31;;;;;;;9.88;5.70;;;2.20;89.60;;;;;;5122064;27;20050;-57
2022/01/08 09:17:03;;;;;;;7.45;4.22;;;2.20;89.50;;;;;;5121006;27;20428;-57
2022/01/08 09:19:33;;;;;;;11.07;4.78;;;2.30;89.40;;;;;;5123332;27;20440;-58
2022/01/08 09:22:05;;;;;;;9.75;3.90;;;2.30;89.20;;;;;;5094537;28;20027;-58
2022/01/08 09:24:33;;;;;;;9.65;4.28;;;2.30;89.20;;;;;;5130337;27;20035;-59
2022/01/08 09:27:00;;;;;;;9.35;4.00;;;2.40;89.20;;;;;;5116547;27;20069;-61
2022/01/08 09:29:27;;;;;;;10.75;4.10;;;2.60;89.00;;;;;;5104775;27;20051;-62
2022/01/08 09:31:53;;;;;;;9.55;4.25;;;2.60;88.80;;;;;;5118307;27;20114;-61
2022/01/08 09:34:22;;;;;;;8.13;3.83;;;2.70;88.90;;;;;;5132103;27;20114;-61
2022/01/08 09:36:49;;;;;;;9.30;4.30;;;2.70;88.70;;;;;;5130442;27;20099;-60
2022/01/08 09:39:16;;;;;;;7.88;4.40;;;2.80;88.50;;;;;;5134847;27;20792;-60
2022/01/08 09:41:46;;;;;;;9.98;3.88;;;2.80;88.60;;;;;;5114815;28;20023;-61
2022/01/08 09:44:13;;;;;;;11.65;4.03;;;2.90;88.50;;;;;;5129089;27;20511;-62
2022/01/08 09:46:40;;;;;;;8.05;3.83;;;2.90;88.30;;;;;;5102048;27;20058;-63
2022/01/08 09:49:09;;;;;;;10.75;3.70;;;2.90;88.30;;;;;;5116496;27;20047;-63
2022/01/08 09:51:36;;;;;;;7.90;4.03;;;3.10;88.20;;;;;;5134597;27;20326;-64
2022/01/08 09:54:05;;;;;;;9.80;3.92;;;3.20;88.10;;;;;;5133564;27;20058;-64
2022/01/08 09:56:32;;;;;;;10.03;3.43;;;3.20;87.70;;;;;;5120669;27;20542;-64
2022/01/08 09:59:00;;;;;;;11.20;4.47;;;3.30;87.90;;;;;;5100820;27;20289;-64
2022/01/08 10:01:52;;;;;;;7.18;3.75;;;3.40;87.60;;;;;;5103681;27;20432;-64
2022/01/08 10:04:24;;;;;;;11.27;5.32;;;3.50;87.30;;;;;;5130928;27;20106;-62
2022/01/08 10:06:53;;;;;;;10.45;3.95;;;3.60;87.00;;;;;;5124556;27;20031;-61
2022/01/08 10:09:20;;;;;;;8.93;3.60;;;3.60;86.90;;;;;;5133101;27;20043;-60
2022/01/08 10:11:50;;;;;;;7.63;3.13;;;3.70;86.80;;;;;;5118355;27;20048;-58
2022/01/08 10:14:29;;;;;;;6.78;2.97;;;3.60;86.70;;;;;;5120109;27;20449;-58
2022/01/08 10:17:13;;;;;;;8.35;3.83;;;3.60;86.50;;;;;;5119610;27;20038;-58
2022/01/08 10:19:43;;;;;;;5.22;3.03;;;3.60;86.60;;;;;;5117158;27;20064;-58
2022/01/08 10:22:19;;;;;;;7.15;3.40;;;3.70;86.80;;;;;;5102994;27;20106;-58
2022/01/08 10:24:46;;;;;;;6.90;3.13;;;3.70;86.80;;;;;;5122600;27;20464;-57
2022/01/08 10:27:14;;;;;;;9.70;4.18;;;3.90;87.00;;;;;;5122190;27;20046;-57
2022/01/08 10:29:53;;;;;;;12.82;4.68;;;3.90;86.70;;;;;;5117225;27;20089;-54
2022/01/08 10:32:28;;;;;;;7.60;3.50;;;3.90;86.40;;;;;;5111062;28;20087;-53
2022/01/08 10:34:57;;;;;;;8.88;4.38;;;3.90;86.20;;;;;;5119258;27;20031;-52
2022/01/08 10:37:23;;;;;;;12.45;4.10;;;3.80;86.20;;;;;;5135833;27;20071;-50
2022/01/08 10:39:55;;;;;;;8.07;3.92;;;3.90;86.30;;;;;;5131025;27;20821;-54
2022/01/08 10:42:24;;;;;;;12.00;4.38;;;3.90;86.40;;;;;;5115885;27;20338;-50
2022/01/08 10:44:50;;;;;;;9.82;4.15;;;3.90;86.10;;;;;;5106076;27;20048;-49
2022/01/08 10:47:21;;;;;;;12.88;4.43;;;3.90;86.30;;;;;;5082580;28;20047;-52
2022/01/08 10:50:00;;;;;;;12.32;4.50;;;3.80;86.20;;;;;;5089306;28;20025;-53
2022/01/08 10:52:28;;;;;;;7.95;4.25;;;3.80;86.30;;;;;;5091813;28;20024;-52
2022/01/08 10:55:04;;;;;;;9.98;5.03;;;3.80;86.50;;;;;;5077738;28;20032;-52
2022/01/08 10:57:34;;;;;;;10.85;5.47;;;3.90;86.70;;;;;;5072703;28;20074;-52
2022/01/08 11:00:06;;;;;;;9.00;5.18;;;3.90;86.70;;;;;;5070152;28;20032;-50
2022/01/08 11:02:34;;;;;;;9.90;5.40;;;3.90;86.50;;;;;;5060131;28;20028;-49
2022/01/08 11:05:04;;;;;;;9.50;5.43;;;3.90;86.20;;;;;;5069009;28;20111;-50
2022/01/08 11:07:32;;;;;;;12.63;6.28;;;4.00;86.10;;;;;;5076797;28;20020;-50
2022/01/08 11:10:15;;;;;;;9.75;6.45;;;4.00;86.20;;;;;;5081936;28;20107;-48
2022/01/08 11:12:45;;;;;;;9.65;5.07;;;4.00;86.30;;;;;;5082368;28;20069;-50
2022/01/08 11:18:05;;;;;;;10.45;5.40;;;4.10;86.40;;;;;;5085236;28;20043;-52
2022/01/08 11:20:33;;;;;;;11.43;7.07;;;4.10;86.00;;;;;;5070317;28;20112;-47
2022/01/08 11:23:04;;;;;;;13.35;7.18;;;4.00;86.10;;;;;;5081937;28;20099;-45
2022/01/08 11:25:38;;;;;;;12.23;5.80;;;4.00;86.10;;;;;;5090041;28;20507;-45
2022/01/08 11:28:24;;;;;;;9.40;6.28;;;4.10;85.90;;;;;;5091816;28;20103;-44
2022/01/08 11:30:58;;;;;;;12.82;5.97;;;4.10;85.70;;;;;;5085148;28;20042;-46
2022/01/08 11:33:34;;;;;;;12.20;6.50;;;4.10;85.70;;;;;;5080404;28;20341;-45
2022/01/08 11:35:59;;;;;;;15.07;5.85;;;4.10;86.10;;;;;;5078195;28;20046;-46
2022/01/08 11:38:28;;;;;;;11.18;5.97;;;4.10;85.80;;;;;;5073562;28;20028;-46
2022/01/08 11:40:58;;;;;;;13.18;6.53;;;4.10;86.20;;;;;;5055787;28;20042;-45
2022/01/08 11:43:25;;;;;;;;;;;4.20;85.90;;;;;;5061254;28;20035;-45
2022/01/08 11:45:58;;;;;;;8.95;5.75;;;4.10;85.80;;;;;;5078602;28;20003;-45
2022/01/08 11:48:41;;;;;;;12.45;6.00;;;4.10;85.90;;;;;;5085305;28;20582;-46
2022/01/08 11:51:17;;;;;;;14.23;6.32;;;4.00;85.40;;;;;;5110536;28;20110;-49
2022/01/08 11:53:52;;;;;;;11.88;6.75;;;4.00;85.80;;;;;;5081687;28;20042;-44
2022/01/08 11:56:37;;;;;;;12.00;5.85;;;4.10;85.90;;;;;;5109034;28;20055;-46
2022/01/08 11:59:15;;;;;;;11.05;5.25;;;4.10;86.00;;;;;;5097921;28;20449;-49
2022/01/08 12:01:43;;;;;;;11.65;5.63;;;4.10;85.90;;;;;;5113304;28;20023;-47
2022/01/08 12:04:27;;;;;;;12.93;6.05;;;4.10;85.70;;;;;;5109310;28;20364;-50
2022/01/08 12:06:54;;;;;;;13.63;5.95;;;4.10;85.70;;;;;;5097218;28;20376;-50
2022/01/08 12:09:26;;;;;;;11.18;5.93;;;4.20;85.80;;;;;;5102187;28;20035;-44
2022/01/08 12:12:10;;;;;;;14.30;5.80;;;4.20;85.70;;;;;;5112227;28;20039;-47
2022/01/08 12:14:55;;;;;;;13.25;5.22;;;4.30;85.60;;;;;;5109156;28;20122;-49
2022/01/08 12:17:22;;;;;;;13.52;6.15;;;4.30;85.50;;;;;;5107903;28;20126;-48
2022/01/08 12:20:07;;;;;;;14.60;7.20;;;4.30;85.20;;;;;;5082562;28;20027;-46
2022/01/08 12:22:33;;;;;;;13.15;5.70;;;4.30;85.30;;;;;;5093826;28;20036;-45
2022/01/08 12:25:03;;;;;;;11.60;6.28;;;4.20;84.80;;;;;;5098824;28;20032;-46
2022/01/08 12:27:46;;;;;;;12.18;6.50;;;4.20;84.80;;;;;;5113483;28;20022;-45
2022/01/08 12:30:17;;;;;;;12.10;5.80;;;4.20;84.70;;;;;;5105443;28;20020;-44
2022/01/08 12:32:50;;;;;;;12.50;6.35;;;4.20;84.90;;;;;;5093455;28;20023;-44
2022/01/08 12:35:32;;;;;;;13.75;6.35;;;4.20;84.90;;;;;;5102109;28;20065;-44
2022/01/08 12:38:05;;;;;;;14.77;6.82;;;4.20;84.80;;;;;;5112203;28;20035;-47
2022/01/08 12:40:49;;;;;;;13.95;6.20;;;4.30;84.70;;;;;;5092147;28;20032;-47
2022/01/08 12:43:36;;;;;;;12.68;6.50;;;4.30;84.80;;;;;;5080362;28;20039;-46
2022/01/08 12:46:22;;;;;;;15.32;6.53;;;4.40;84.40;;;;;;5082755;28;20059;-46
2022/01/08 12:49:06;;;;;;;16.73;6.22;;;4.30;84.20;;;;;;5096450;28;20073;-47
2022/01/08 12:51:50;;;;;;;10.63;6.55;;;4.20;84.00;;;;;;5096751;28;20012;-43
2022/01/08 12:54:19;;;;;;;18.02;7.57;;;4.20;84.20;;;;;;5100108;28;20035;-48
2022/01/08 12:56:50;;;;;;;15.07;8.20;;;4.20;84.50;;;;;;5104861;28;20050;-46
2022/01/08 12:59:18;;;;;;;11.63;7.18;;;4.20;84.70;;;;;;5102770;28;20046;-43
2022/01/08 13:01:46;;;;;;;10.63;6.50;;;4.10;84.90;;;;;;5102607;28;20039;-46
2022/01/08 13:04:17;;;;;;;13.00;7.57;;;4.00;84.90;;;;;;5103459;28;20061;-45
2022/01/08 13:06:44;;;;;;;13.00;7.68;;;4.00;85.10;;;;;;5097750;28;20132;-50
2022/01/08 13:09:12;;;;;;;15.70;8.55;;;3.90;85.10;;;;;;5084257;28;20059;-47
2022/01/08 13:11:40;;;;;;;18.88;8.38;;;3.90;85.20;;;;;;5090212;28;20044;-43
2022/01/08 13:14:16;;;;;;;15.98;9.25;;;3.90;85.20;;;;;;5106049;28;20050;-45
2022/01/08 13:17:01;;;;;;;19.38;9.45;;;3.80;85.80;;;;;;5102779;28;20078;-49
2022/01/08 13:19:31;;;;;;;16.25;8.38;;;3.80;85.40;;;;;;5093610;28;20031;-44
2022/01/08 13:22:04;;;;;;;13.05;8.50;;;3.70;85.40;;;;;;5112958;28;20443;-46
2022/01/08 13:24:50;;;;;;;13.43;8.30;;;3.70;85.80;;;;;;5091900;28;20053;-47
2022/01/08 13:27:23;;;;;;;14.52;8.23;;;3.60;85.90;;;;;;5100360;28;20720;-46
2022/01/08 13:29:54;;;;;;;12.15;8.00;;;3.60;85.80;;;;;;5110044;28;20031;-50